Terminal Aerodrome Forecast
Issued by NWS

Home | Current Version | Previous Version | Graphics & Text | Print | Product List | Glossary On
Versions: 1 2 3 4 5 6 7 8 9 10 11 12 13 14 15 16
000
FTUS43 KBIS 281100
TAFMOT
TAF
KMOT 281129Z 2812/2912 32003KT 1/4SM FG OVC001
      TEMPO 2812/2816 1/2SM FG VV002
     FM281600 33011KT 1/2SM FG VCSH BKN002 OVC005
     FM281800 32016G22KT 4SM -SHSN BR OVC006
     FM282000 31021G29KT P6SM -SHSN OVC008=

USA.gov is the U.S. government's official web portal to all federal, state and local government web resources and services.